createdAt,value
2019-03-15T07:42:07.738Z,11.80
2019-03-15T07:42:19.473Z,20.00
2019-03-15T07:42:32.498Z,18.70
2019-03-15T07:42:44.270Z,18.20
2019-03-15T07:42:56.059Z,17.60
2019-03-15T07:43:07.841Z,17.40
2019-03-15T07:43:20.188Z,17.30
2019-03-15T07:43:31.406Z,17.10
2019-03-15T07:43:43.188Z,17.10
2019-03-15T07:43:54.986Z,17.00
2019-03-15T07:44:06.765Z,16.90
2019-03-15T07:44:18.600Z,16.90
2019-03-15T07:44:30.398Z,16.90
2019-03-15T07:44:42.273Z,16.90
2019-03-15T07:44:54.288Z,16.90
2019-03-15T07:45:06.102Z,16.80
2019-03-15T07:45:17.908Z,16.90
2019-03-15T07:45:29.704Z,16.90
2019-03-15T07:45:41.493Z,17.00
2019-03-15T07:45:53.277Z,17.00
2019-03-15T07:46:05.332Z,17.00
2019-03-15T07:46:17.186Z,17.00
2019-03-15T07:46:28.963Z,17.10
2019-03-15T07:46:40.771Z,17.10
2019-03-15T07:46:52.510Z,17.10
2019-03-15T07:47:04.308Z,17.20
2019-03-15T07:47:16.092Z,17.20
2019-03-15T07:47:27.895Z,17.30
2019-03-15T07:47:39.681Z,17.30
2019-03-15T07:47:51.466Z,17.40
2019-03-15T07:48:03.248Z,17.40
2019-03-15T07:48:22.442Z,17.50
2019-03-15T07:48:27.069Z,17.50
2019-03-15T07:48:38.634Z,17.50
2019-03-15T07:48:50.410Z,17.60
2019-03-15T07:49:02.199Z,17.60
2019-03-15T07:49:13.972Z,17.70
2019-03-15T07:49:25.768Z,17.70
2019-03-15T07:49:37.550Z,17.80
2019-03-15T07:49:49.385Z,17.80
2019-03-15T07:50:01.230Z,17.80
2019-03-15T07:50:14.346Z,17.90
2019-03-15T07:50:24.886Z,17.90
2019-03-15T07:50:36.669Z,18.00
2019-03-15T07:50:48.443Z,18.00
2019-03-15T07:51:00.218Z,18.10
2019-03-15T07:51:12.000Z,18.10
2019-03-15T07:51:23.775Z,18.10
2019-03-15T07:51:35.558Z,18.10
2019-03-15T07:51:48.119Z,18.10
2019-03-15T07:51:59.968Z,18.20
2019-03-15T07:52:11.767Z,18.30
2019-03-15T07:52:23.548Z,18.30
2019-03-15T07:52:35.431Z,18.40
2019-03-15T07:52:47.340Z,18.40
2019-03-15T07:52:59.258Z,18.40
2019-03-15T07:53:11.032Z,18.50
2019-03-15T07:53:22.812Z,18.50
2019-03-15T07:53:35.574Z,18.50
2019-03-15T07:53:46.366Z,18.60
2019-03-15T07:53:58.162Z,18.60
2019-03-15T07:54:09.946Z,18.60
2019-03-15T07:54:21.721Z,18.70
2019-03-15T07:54:38.351Z,18.70
2019-03-15T07:54:45.278Z,18.80
2019-03-15T07:54:57.051Z,18.90
2019-03-15T07:55:08.829Z,18.90
2019-03-15T07:55:20.606Z,18.90
2019-03-15T07:55:32.384Z,19.00
2019-03-15T07:55:44.162Z,19.10
2019-03-15T07:55:55.948Z,19.10
2019-03-15T07:56:07.724Z,19.20
2019-03-15T07:56:19.692Z,19.30
2019-03-15T07:56:31.468Z,19.30
2019-03-15T07:56:43.245Z,19.30
2019-03-15T07:56:55.032Z,19.40
2019-03-15T07:57:06.824Z,19.50
2019-03-15T07:57:18.604Z,19.50
2019-03-15T07:57:30.378Z,19.60
2019-03-15T07:57:42.160Z,19.60
2019-03-15T07:57:53.938Z,19.70
2019-03-15T07:58:05.716Z,19.70
2019-03-15T07:58:17.506Z,19.80
2019-03-15T07:58:29.298Z,19.90
2019-03-15T07:58:41.076Z,19.90
2019-03-15T07:58:52.856Z,20.00
2019-03-15T07:59:04.635Z,20.00
2019-03-15T07:59:16.410Z,20.10
2019-03-15T07:59:28.194Z,20.10
2019-03-15T07:59:39.970Z,20.20
2019-03-15T07:59:51.764Z,20.30
2019-03-15T08:00:03.541Z,20.30
2019-03-15T08:00:15.320Z,20.40
2019-03-15T08:00:27.110Z,20.40
2019-03-15T08:00:38.885Z,20.50
2019-03-15T08:00:50.662Z,20.60
2019-03-15T08:01:02.439Z,20.60
2019-03-15T08:01:14.225Z,20.70
2019-03-15T08:01:26.002Z,20.80
2019-03-15T08:01:38.266Z,20.80
2019-03-15T08:01:52.631Z,20.90
2019-03-15T08:02:01.936Z,20.70
2019-03-15T08:02:13.719Z,20.10
2019-03-15T08:02:25.483Z,19.30
2019-03-15T08:02:37.268Z,19.00
2019-03-15T08:02:49.050Z,18.90
2019-03-15T08:03:00.830Z,18.80
2019-03-15T08:03:12.606Z,18.70
2019-03-15T08:03:24.392Z,18.60
2019-03-15T08:03:36.188Z,18.50
2019-03-15T08:03:47.973Z,18.40
2019-03-15T08:03:59.754Z,18.30
2019-03-15T08:04:16.982Z,18.20
2019-03-15T08:04:23.368Z,18.10
2019-03-15T08:04:36.126Z,18.00
2019-03-15T08:04:46.996Z,17.80
2019-03-15T08:04:58.756Z,17.70
2019-03-15T08:05:10.536Z,17.60
2019-03-15T08:05:22.332Z,17.40
2019-03-15T08:05:34.100Z,17.30
2019-03-15T08:05:45.876Z,17.10
2019-03-15T08:05:57.647Z,16.90
2019-03-15T08:06:09.433Z,16.80
2019-03-15T08:06:33.703Z,16.70
2019-03-15T08:06:35.039Z,16.60
2019-03-15T08:06:44.786Z,16.50
2019-03-15T08:06:56.728Z,16.40
2019-03-15T08:07:08.592Z,16.20
2019-03-15T08:07:20.363Z,16.10
2019-03-15T08:07:37.389Z,16.00
2019-03-15T08:07:45.675Z,15.90
2019-03-15T08:07:55.630Z,15.80
2019-03-15T08:08:07.404Z,15.70
2019-03-15T08:08:19.189Z,15.50
2019-03-15T08:08:31.216Z,15.30
2019-03-15T08:08:43.007Z,15.20
2019-03-15T08:08:54.638Z,15.00
2019-03-15T08:09:06.419Z,14.90
2019-03-15T08:09:18.210Z,14.80
2019-03-15T08:09:29.979Z,14.80
2019-03-15T08:09:41.758Z,14.60
2019-03-15T08:09:53.548Z,14.60
2019-03-15T08:10:05.331Z,14.50
2019-03-15T08:10:17.105Z,14.40
2019-03-15T08:10:28.896Z,14.30
2019-03-15T08:10:40.674Z,14.20
2019-03-15T08:10:54.985Z,14.10
2019-03-15T08:11:04.189Z,14.00
2019-03-15T08:11:16.018Z,13.90
2019-03-15T08:11:27.892Z,13.80
2019-03-15T08:11:39.670Z,13.70
2019-03-15T08:11:51.447Z,13.60
2019-03-15T08:12:03.219Z,13.50
2019-03-15T08:12:15.014Z,13.40
2019-03-15T08:12:26.791Z,13.30
2019-03-15T08:12:38.974Z,13.20
2019-03-15T08:12:50.346Z,13.20
2019-03-15T08:13:02.132Z,13.10
2019-03-15T08:13:13.917Z,13.00
2019-03-15T08:13:25.734Z,12.90
2019-03-15T08:13:37.478Z,12.90
2019-03-15T08:13:49.263Z,12.80
2019-03-15T08:14:01.042Z,12.80
2019-03-15T08:14:12.820Z,12.70
2019-03-15T08:14:24.600Z,12.70
2019-03-15T08:14:36.372Z,12.60
2019-03-15T08:14:48.147Z,12.60
2019-03-15T08:14:59.919Z,12.50
2019-03-15T08:15:11.744Z,12.50
2019-03-15T08:15:23.526Z,12.50
2019-03-15T08:15:35.309Z,12.40
2019-03-15T08:15:47.088Z,12.40
2019-03-15T08:15:58.869Z,12.30
2019-03-15T08:16:10.769Z,12.20
2019-03-15T08:16:22.556Z,12.00
2019-03-15T08:16:34.769Z,11.90
2019-03-15T08:16:46.115Z,11.90
2019-03-15T08:16:57.907Z,11.80
2019-03-15T08:17:09.714Z,11.70
2019-03-15T08:17:21.492Z,11.70
2019-03-15T08:17:33.446Z,11.60
2019-03-15T08:17:45.238Z,11.60
2019-03-15T08:17:57.034Z,11.50
2019-03-15T08:18:08.814Z,11.50
2019-03-15T08:18:20.590Z,11.50
2019-03-15T08:18:32.388Z,11.50
2019-03-15T08:18:44.165Z,11.40
2019-03-15T08:18:55.946Z,11.40
2019-03-15T08:19:07.728Z,11.40
2019-03-15T08:19:19.507Z,11.40
2019-03-15T08:19:31.286Z,11.30
2019-03-15T08:19:43.064Z,11.30
2019-03-15T08:19:54.843Z,11.30
2019-03-15T08:20:06.612Z,11.30
2019-03-15T08:20:18.407Z,11.20
2019-03-15T08:20:30.230Z,11.20
2019-03-15T08:20:41.919Z,11.20
2019-03-15T08:20:53.656Z,11.10
2019-03-15T08:21:05.435Z,11.10
2019-03-15T08:21:17.227Z,11.10
2019-03-15T08:21:28.997Z,11.00
2019-03-15T08:21:40.766Z,11.00
2019-03-15T08:21:52.535Z,11.00
2019-03-15T08:22:04.316Z,10.90
2019-03-15T08:22:16.121Z,10.80
2019-03-15T08:22:27.896Z,10.80
2019-03-15T08:22:39.674Z,10.70
2019-03-15T08:22:51.452Z,10.70
2019-03-15T08:23:03.224Z,10.60
2019-03-15T08:23:15.027Z,10.60
2019-03-15T08:23:26.815Z,10.50
2019-03-15T08:23:38.592Z,10.50
2019-03-15T08:23:50.368Z,10.50
2019-03-15T08:24:02.141Z,10.40
2019-03-15T08:24:13.919Z,10.40
2019-03-15T08:24:25.882Z,10.40
2019-03-15T08:24:50.588Z,10.40
2019-03-15T08:24:51.720Z,10.30
2019-03-15T08:25:01.238Z,10.30
2019-03-15T08:25:13.021Z,10.20
2019-03-15T08:25:24.793Z,10.20
2019-03-15T08:25:36.583Z,10.20
2019-03-15T08:25:50.397Z,10.20
2019-03-15T08:26:00.129Z,10.20
2019-03-15T08:26:11.921Z,10.10
2019-03-15T08:26:23.686Z,10.10
2019-03-15T08:26:35.460Z,10.00
2019-03-15T08:26:47.238Z,9.90
2019-03-15T08:26:59.017Z,9.90
2019-03-15T08:27:10.784Z,9.90
2019-03-15T08:27:22.584Z,9.80
2019-03-15T08:27:34.371Z,9.80
2019-03-15T08:27:46.153Z,9.70
2019-03-15T08:27:57.940Z,9.70
2019-03-15T08:28:09.679Z,9.70
2019-03-15T08:28:21.447Z,9.60
2019-03-15T08:28:33.283Z,9.60
2019-03-15T08:28:45.056Z,9.60
2019-03-15T08:28:56.856Z,9.60
2019-03-15T08:29:09.951Z,9.50
2019-03-15T08:29:20.419Z,9.50
2019-03-15T08:29:32.190Z,9.60
2019-03-15T08:29:43.986Z,9.50
2019-03-15T08:29:55.774Z,9.50
2019-03-15T08:30:07.546Z,9.50
2019-03-15T08:30:19.317Z,9.50
2019-03-15T08:30:31.084Z,9.50
2019-03-15T08:30:43.076Z,9.50
2019-03-15T08:30:54.852Z,9.50
2019-03-15T08:31:06.638Z,9.50
2019-03-15T08:31:18.416Z,9.50
2019-03-15T08:31:30.184Z,9.40
2019-03-15T08:31:41.960Z,9.40
2019-03-15T08:31:53.826Z,9.40
2019-03-15T08:32:05.612Z,9.40
2019-03-15T08:32:17.385Z,9.40
2019-03-15T08:32:29.188Z,9.40
2019-03-15T08:32:43.338Z,9.40
2019-03-15T08:32:52.741Z,9.40
2019-03-15T08:33:10.005Z,9.40
2019-03-15T08:33:16.324Z,9.40
2019-03-15T08:33:28.107Z,9.40
2019-03-15T08:33:39.885Z,9.40
2019-03-15T08:33:51.654Z,9.40
2019-03-15T08:34:03.440Z,9.40
2019-03-15T08:34:15.245Z,9.40
2019-03-15T08:34:27.025Z,9.40
2019-03-15T08:34:38.794Z,9.40
2019-03-15T08:34:50.575Z,9.40
2019-03-15T08:35:04.203Z,9.40
2019-03-15T08:35:14.140Z,9.40
2019-03-15T08:35:25.915Z,9.40
2019-03-15T08:35:37.726Z,9.40
2019-03-15T08:35:49.416Z,9.40
2019-03-15T08:36:01.155Z,9.40
2019-03-15T08:36:12.930Z,9.50
2019-03-15T08:36:24.699Z,9.50
2019-03-15T08:36:36.545Z,9.50
2019-03-15T08:36:48.275Z,9.50
2019-03-15T08:37:00.046Z,9.50
2019-03-15T08:37:11.871Z,9.50
2019-03-15T08:37:23.969Z,9.50
2019-03-15T08:37:35.769Z,9.50
2019-03-15T08:37:47.546Z,9.40
2019-03-15T08:37:59.327Z,9.50
2019-03-15T08:38:11.233Z,9.40
2019-03-15T08:38:23.004Z,9.40
2019-03-15T08:38:46.829Z,9.40
2019-03-15T08:38:47.973Z,9.40
2019-03-15T08:38:58.371Z,9.40
2019-03-15T08:39:10.149Z,9.40
2019-03-15T08:39:21.937Z,9.40
2019-03-15T08:39:33.716Z,9.40
2019-03-15T08:39:45.699Z,9.40
2019-03-15T08:39:57.558Z,9.40
2019-03-15T08:40:09.347Z,9.40
2019-03-15T08:40:21.121Z,9.40
2019-03-15T08:40:32.923Z,9.40
2019-03-15T08:40:44.679Z,9.30
2019-03-15T08:40:56.454Z,9.30
2019-03-15T08:41:08.248Z,9.30
2019-03-15T08:41:20.039Z,9.30
2019-03-15T08:41:31.805Z,9.20
2019-03-15T08:41:43.578Z,9.20
2019-03-15T08:41:55.362Z,9.10
2019-03-15T08:42:07.140Z,9.10
2019-03-15T08:42:18.925Z,9.10
2019-03-15T08:42:30.695Z,9.10
2019-03-15T08:42:42.495Z,9.10
2019-03-15T08:42:54.292Z,9.10
2019-03-15T08:43:06.072Z,9.00
2019-03-15T08:43:17.861Z,9.00
2019-03-15T08:43:29.837Z,9.10
2019-03-15T08:43:41.614Z,9.10
2019-03-15T08:43:53.479Z,9.10
2019-03-15T08:44:05.252Z,9.10
2019-03-15T08:44:17.025Z,9.10
2019-03-15T08:44:28.802Z,9.10
2019-03-15T08:44:40.580Z,9.10
2019-03-15T08:44:52.365Z,9.10
2019-03-15T08:45:04.137Z,9.10
2019-03-15T08:45:15.960Z,9.10
2019-03-15T08:45:27.737Z,9.10
2019-03-15T08:45:39.679Z,9.10
2019-03-15T08:45:51.624Z,9.00
2019-03-15T08:46:03.443Z,9.00
2019-03-15T08:46:15.232Z,9.00
2019-03-15T08:46:26.997Z,9.00
2019-03-15T08:46:38.773Z,9.00
2019-03-15T08:46:50.552Z,9.00
2019-03-15T08:47:02.329Z,8.90
2019-03-15T08:47:14.108Z,8.90
2019-03-15T08:47:25.849Z,8.90
2019-03-15T08:47:38.176Z,8.90
2019-03-15T08:47:50.113Z,8.90
2019-03-15T08:48:01.887Z,8.80
2019-03-15T08:48:13.676Z,8.80
2019-03-15T08:48:25.460Z,8.70
2019-03-15T08:48:37.248Z,8.70
2019-03-15T08:48:49.030Z,8.70
2019-03-15T08:49:00.800Z,8.70
2019-03-15T08:49:12.653Z,8.70
2019-03-15T08:49:24.553Z,8.70
2019-03-15T08:49:36.327Z,8.70
2019-03-15T08:49:48.096Z,8.70
2019-03-15T08:49:59.876Z,8.70
2019-03-15T08:50:14.717Z,8.70
2019-03-15T08:50:24.712Z,8.70
2019-03-15T08:50:35.224Z,8.80
2019-03-15T08:50:47.000Z,8.70
2019-03-15T08:50:59.068Z,8.70
2019-03-15T08:51:11.088Z,8.70
2019-03-15T08:51:22.652Z,8.80
2019-03-15T08:51:34.440Z,8.80
2019-03-15T08:51:46.217Z,8.80
2019-03-15T08:52:03.662Z,8.80
2019-03-15T08:52:09.799Z,8.80
2019-03-15T08:52:21.621Z,8.80
2019-03-15T08:52:33.402Z,8.80
2019-03-15T08:52:45.203Z,8.80
2019-03-15T08:52:56.984Z,8.80
2019-03-15T08:53:08.751Z,8.80
2019-03-15T08:53:20.521Z,8.80
2019-03-15T08:53:32.299Z,8.80
2019-03-15T08:53:44.076Z,8.80
2019-03-15T08:53:55.852Z,8.80
2019-03-15T08:54:07.628Z,8.80
2019-03-15T08:54:19.405Z,8.80
2019-03-15T08:54:31.176Z,8.80
2019-03-15T08:54:42.970Z,8.90
2019-03-15T08:55:04.737Z,8.90
2019-03-15T08:55:06.543Z,8.90
2019-03-15T08:55:18.323Z,8.90
2019-03-15T08:55:30.097Z,8.90
2019-03-15T08:55:42.915Z,8.90
2019-03-15T08:55:54.652Z,8.90
2019-03-15T08:56:06.426Z,8.90
2019-03-15T08:56:18.209Z,8.90
2019-03-15T08:56:29.986Z,8.90
2019-03-15T08:56:41.762Z,8.90
2019-03-15T08:56:53.527Z,8.90
2019-03-15T08:57:06.315Z,8.90
2019-03-15T08:57:18.087Z,8.90
2019-03-15T08:57:29.868Z,8.90
2019-03-15T08:57:41.653Z,8.90
2019-03-15T08:57:53.474Z,8.90
2019-03-15T08:58:13.786Z,8.90
2019-03-15T08:58:21.834Z,8.90
2019-03-15T08:58:28.802Z,8.90
2019-03-15T08:58:40.581Z,9.00
2019-03-15T08:58:52.360Z,9.00
2019-03-15T08:59:04.132Z,9.00
2019-03-15T08:59:15.910Z,8.90
2019-03-15T08:59:27.691Z,9.00
2019-03-15T08:59:52.481Z,9.00
2019-03-15T08:59:57.004Z,9.00
2019-03-15T09:00:03.012Z,9.00
2019-03-15T09:00:14.787Z,9.00
2019-03-15T09:00:26.563Z,9.10
2019-03-15T09:00:38.342Z,9.10
2019-03-15T09:00:50.144Z,9.10
2019-03-15T09:01:01.923Z,9.10
2019-03-15T09:01:13.694Z,9.00
2019-03-15T09:01:25.476Z,9.10
2019-03-15T09:01:37.256Z,9.10
2019-03-15T09:01:48.995Z,9.10
2019-03-15T09:02:00.769Z,9.20
2019-03-15T09:02:12.545Z,9.20
2019-03-15T09:02:24.316Z,9.20
2019-03-15T09:02:36.111Z,9.20
2019-03-15T09:02:47.919Z,9.10
2019-03-15T09:02:59.690Z,9.20
2019-03-15T09:03:11.518Z,9.10
2019-03-15T09:03:28.253Z,9.20
2019-03-15T09:03:34.985Z,9.10
2019-03-15T09:03:46.760Z,9.20
2019-03-15T09:03:58.614Z,9.20
2019-03-15T09:04:10.330Z,9.20
2019-03-15T09:04:22.097Z,9.20
2019-03-15T09:04:33.879Z,9.20
2019-03-15T09:04:45.660Z,9.30
2019-03-15T09:04:57.537Z,9.20
2019-03-15T09:05:09.327Z,9.20
2019-03-15T09:05:21.107Z,9.10
2019-03-15T09:05:32.882Z,9.20
2019-03-15T09:05:44.661Z,9.20
2019-03-15T09:05:56.433Z,9.20
2019-03-15T09:06:08.198Z,9.20
2019-03-15T09:06:20.017Z,9.20
2019-03-15T09:06:31.808Z,9.20
2019-03-15T09:06:43.594Z,9.20
2019-03-15T09:06:55.376Z,9.10
2019-03-15T09:07:07.158Z,9.10
2019-03-15T09:07:18.940Z,9.10
2019-03-15T09:07:30.775Z,9.10
2019-03-15T09:07:42.483Z,9.10
2019-03-15T09:07:54.990Z,9.10
2019-03-15T09:08:07.070Z,9.10
2019-03-15T09:08:18.851Z,9.00
2019-03-15T09:08:30.627Z,9.00
2019-03-15T09:08:42.413Z,9.00
2019-03-15T09:08:54.191Z,9.00
2019-03-15T09:09:05.964Z,9.00
2019-03-15T09:09:17.747Z,9.00
2019-03-15T09:09:29.518Z,9.00
2019-03-15T09:09:41.302Z,9.00
2019-03-15T09:09:53.109Z,9.00
2019-03-15T09:10:04.878Z,9.00
2019-03-15T09:10:23.292Z,9.00
2019-03-15T09:10:28.435Z,9.00
2019-03-15T09:10:40.165Z,9.00
2019-03-15T09:10:51.959Z,9.00
2019-03-15T09:11:03.738Z,9.00
2019-03-15T09:11:15.521Z,8.90
2019-03-15T09:11:27.297Z,9.00
2019-03-15T09:11:39.025Z,9.00
2019-03-15T09:11:50.801Z,9.00
2019-03-15T09:12:02.580Z,9.00
2019-03-15T09:12:14.358Z,9.00
2019-03-15T09:12:26.125Z,9.00
2019-03-15T09:12:37.899Z,8.90
2019-03-15T09:12:49.679Z,8.90
2019-03-15T09:13:01.468Z,8.90
2019-03-15T09:13:13.243Z,8.90
2019-03-15T09:13:25.013Z,8.90
2019-03-15T09:13:36.793Z,8.90
2019-03-15T09:13:49.298Z,8.90
2019-03-15T09:14:00.365Z,8.90
2019-03-15T09:14:12.139Z,8.90
2019-03-15T09:14:23.927Z,8.90
2019-03-15T09:14:35.884Z,8.90
2019-03-15T09:14:47.667Z,8.90
2019-03-15T09:14:59.443Z,8.90
2019-03-15T09:15:11.231Z,8.90
2019-03-15T09:15:23.005Z,8.90
2019-03-15T09:15:34.785Z,8.90
2019-03-15T09:15:46.561Z,9.00
2019-03-15T09:15:58.325Z,9.00
2019-03-15T09:16:10.108Z,9.00
2019-03-15T09:16:21.884Z,9.00
2019-03-15T09:16:33.666Z,9.00
2019-03-15T09:16:45.443Z,9.00
2019-03-15T09:16:57.219Z,9.00
2019-03-15T09:17:08.999Z,9.00
2019-03-15T09:17:20.779Z,9.00
2019-03-15T09:17:32.507Z,9.10
2019-03-15T09:17:44.290Z,9.10
2019-03-15T09:17:56.118Z,9.10
2019-03-15T09:18:07.905Z,9.10
2019-03-15T09:18:19.681Z,9.10
2019-03-15T09:18:31.459Z,9.10
2019-03-15T09:18:43.276Z,9.10
2019-03-15T09:18:55.565Z,9.10
2019-03-15T09:19:06.818Z,9.10
2019-03-15T09:19:18.596Z,9.00
2019-03-15T09:19:30.370Z,9.00
2019-03-15T09:19:42.229Z,9.00
2019-03-15T09:19:53.949Z,9.00
2019-03-15T09:20:35.307Z,9.00
2019-03-15T09:20:47.055Z,9.00
2019-03-15T09:20:58.830Z,9.00
2019-03-15T09:21:10.614Z,9.00
2019-03-15T09:21:22.395Z,9.00
2019-03-15T09:21:34.246Z,9.00
2019-03-15T09:21:46.071Z,9.10
2019-03-15T09:22:00.468Z,9.10
2019-03-15T09:22:09.646Z,9.10
2019-03-15T09:22:21.431Z,9.10
2019-03-15T09:22:33.209Z,9.10
2019-03-15T09:22:44.998Z,9.10
2019-03-15T09:22:56.816Z,9.10
2019-03-15T09:23:08.587Z,9.10
2019-03-15T09:23:20.366Z,9.10
2019-03-15T09:23:32.268Z,9.10
2019-03-15T09:23:44.078Z,9.10
2019-03-15T09:23:55.868Z,9.00
2019-03-15T09:24:07.647Z,9.00
2019-03-15T09:24:20.133Z,9.00
2019-03-15T09:24:31.917Z,9.00
2019-03-15T09:24:43.697Z,9.00
2019-03-15T09:24:55.477Z,9.00
2019-03-15T09:25:18.600Z,9.00
2019-03-15T09:25:20.738Z,9.00
2019-03-15T09:25:30.838Z,9.00
2019-03-15T09:25:42.632Z,9.00
2019-03-15T09:25:54.422Z,9.00
2019-03-15T09:26:06.217Z,9.00
2019-03-15T09:26:17.999Z,9.00
2019-03-15T09:26:29.789Z,9.00
2019-03-15T09:26:41.581Z,9.00
2019-03-15T09:26:53.359Z,9.00
2019-03-15T09:27:05.129Z,9.00
2019-03-15T09:27:16.911Z,9.00
2019-03-15T09:27:28.694Z,8.90
2019-03-15T09:27:40.463Z,8.90
2019-03-15T09:27:52.256Z,8.90
2019-03-15T09:28:04.907Z,8.90
2019-03-15T09:28:16.691Z,8.90
2019-03-15T09:28:28.631Z,8.90
2019-03-15T09:28:40.444Z,8.90
2019-03-15T09:28:52.237Z,8.90
2019-03-15T09:29:04.015Z,8.90
2019-03-15T09:29:15.793Z,8.90
2019-03-15T09:29:27.574Z,8.90
2019-03-15T09:29:39.365Z,8.90
2019-03-15T09:29:51.147Z,8.90
2019-03-15T09:30:02.923Z,8.90
2019-03-15T09:30:23.231Z,8.90
2019-03-15T09:30:26.483Z,8.90
2019-03-15T09:30:38.263Z,8.80
2019-03-15T09:30:50.043Z,8.80
2019-03-15T09:31:01.827Z,8.80
2019-03-15T09:31:13.615Z,8.80
2019-03-15T09:31:25.421Z,8.80
2019-03-15T09:31:47.486Z,8.80
2019-03-15T09:31:49.025Z,8.80
2019-03-15T09:32:06.394Z,8.80
2019-03-15T09:32:12.609Z,8.80
2019-03-15T09:32:24.382Z,8.80
2019-03-15T09:32:36.163Z,8.80
2019-03-15T09:32:47.937Z,8.80
2019-03-15T09:33:02.922Z,8.80
2019-03-15T09:33:11.691Z,8.80
2019-03-15T09:33:24.029Z,8.80
2019-03-15T09:33:35.777Z,8.80
2019-03-15T09:33:47.567Z,8.80
2019-03-15T09:33:59.375Z,8.70
2019-03-15T09:34:11.120Z,8.70
2019-03-15T09:34:22.901Z,8.70
2019-03-15T09:34:34.677Z,8.70
2019-03-15T09:34:46.453Z,8.70
2019-03-15T09:34:58.232Z,8.70
2019-03-15T09:35:10.034Z,8.70
2019-03-15T09:35:21.814Z,8.70
2019-03-15T09:35:33.603Z,8.70
2019-03-15T09:35:45.387Z,8.70
2019-03-15T09:35:57.165Z,8.70
2019-03-15T09:36:09.291Z,8.70
2019-03-15T09:36:21.075Z,8.70
2019-03-15T09:36:34.094Z,8.70
2019-03-15T09:36:50.415Z,8.70
2019-03-15T09:36:56.963Z,8.70
2019-03-15T09:37:08.747Z,8.70
2019-03-15T09:37:20.550Z,8.70
2019-03-15T09:37:32.328Z,8.70
2019-03-15T09:37:47.031Z,8.70
2019-03-15T09:37:55.887Z,8.60
2019-03-15T09:38:10.266Z,8.60
2019-03-15T09:38:19.617Z,8.60
2019-03-15T09:38:31.397Z,8.50
2019-03-15T09:38:43.170Z,8.50
2019-03-15T09:38:54.976Z,8.50
2019-03-15T09:39:06.738Z,8.50
2019-03-15T09:39:18.519Z,8.50
2019-03-15T09:39:30.298Z,8.50
2019-03-15T09:39:42.089Z,8.40
2019-03-15T09:39:53.879Z,8.40
2019-03-15T09:40:05.709Z,8.40
2019-03-15T09:40:17.496Z,8.40
2019-03-15T09:40:29.278Z,8.40
2019-03-15T09:40:43.967Z,8.30
2019-03-15T09:40:53.349Z,8.30
2019-03-15T09:41:05.146Z,8.30
2019-03-15T09:41:30.627Z,8.30
2019-03-15T09:41:34.272Z,8.30
2019-03-15T09:41:41.028Z,8.30
2019-03-15T09:41:52.800Z,8.30
2019-03-15T09:42:04.596Z,8.30
2019-03-15T09:42:16.368Z,8.30
2019-03-15T09:42:28.147Z,8.30
2019-03-15T09:42:40.173Z,8.20
2019-03-15T09:42:51.949Z,8.20
2019-03-15T09:43:03.729Z,8.20
2019-03-15T09:43:15.553Z,8.20
2019-03-15T09:43:27.328Z,8.20
2019-03-15T09:43:39.161Z,8.20
2019-03-15T09:43:50.998Z,8.20
2019-03-15T09:44:02.788Z,8.20
2019-03-15T09:44:14.554Z,8.20
2019-03-15T09:44:26.337Z,8.20
2019-03-15T09:44:38.112Z,8.20
2019-03-15T09:44:49.895Z,8.20
2019-03-15T09:45:01.680Z,8.30
2019-03-15T09:45:13.461Z,8.30
2019-03-15T09:45:25.244Z,8.30
2019-03-15T09:45:37.021Z,8.30
2019-03-15T09:45:48.797Z,8.30
2019-03-15T09:46:00.575Z,8.30
2019-03-15T09:46:12.352Z,8.40
2019-03-15T09:46:24.130Z,8.40
2019-03-15T09:46:35.899Z,8.40
2019-03-15T09:46:47.684Z,8.40
2019-03-15T09:47:02.381Z,8.40
2019-03-15T09:47:11.240Z,8.40
2019-03-15T09:47:23.017Z,8.40
2019-03-15T09:47:34.789Z,8.30
2019-03-15T09:47:46.599Z,8.30
2019-03-15T09:47:58.349Z,8.40
2019-03-15T09:48:10.135Z,8.40
2019-03-15T09:48:21.928Z,8.40
2019-03-15T09:48:33.698Z,8.40
2019-03-15T09:48:45.476Z,8.40
2019-03-15T09:48:59.797Z,8.40
2019-03-15T09:49:09.042Z,8.40
2019-03-15T09:49:20.824Z,8.40
2019-03-15T09:49:32.613Z,8.40
2019-03-15T09:49:44.402Z,8.50
2019-03-15T09:49:56.353Z,8.50
2019-03-15T09:50:21.084Z,8.50
2019-03-15T09:50:30.793Z,8.50
2019-03-15T09:50:39.972Z,8.50
2019-03-15T09:50:51.259Z,8.50
2019-03-15T09:50:55.269Z,8.50
2019-03-15T09:51:07.065Z,8.50
2019-03-15T09:51:18.859Z,8.50
2019-03-15T09:51:30.643Z,8.60
2019-03-15T09:51:42.471Z,8.60
2019-03-15T09:51:56.991Z,8.60
2019-03-15T09:52:08.772Z,8.60
2019-03-15T09:52:20.571Z,8.70
2019-03-15T09:52:32.365Z,8.70
2019-03-15T09:52:44.221Z,8.70
2019-03-15T09:52:56.006Z,8.70
2019-03-15T09:53:07.785Z,8.80
2019-03-15T09:53:19.567Z,8.80
2019-03-15T09:53:31.369Z,8.70
2019-03-15T09:53:43.181Z,8.70
2019-03-15T09:53:55.357Z,8.70
2019-03-15T09:54:07.149Z,8.60
2019-03-15T09:54:18.924Z,8.60
2019-03-15T09:54:30.656Z,8.60
2019-03-15T09:54:42.459Z,8.60
2019-03-15T09:54:54.303Z,8.60
2019-03-15T09:55:06.237Z,8.60
2019-03-15T09:55:31.919Z,8.60
2019-03-15T09:55:33.362Z,8.60
2019-03-15T09:55:41.759Z,8.60
2019-03-15T09:55:53.592Z,8.50
2019-03-15T09:56:05.415Z,8.50
2019-03-15T09:56:17.257Z,8.40
2019-03-15T09:56:29.534Z,8.40
2019-03-15T09:56:41.448Z,8.40
2019-03-15T09:56:53.291Z,8.50
2019-03-15T09:57:05.076Z,8.50
2019-03-15T09:57:16.893Z,8.40
2019-03-15T09:57:28.679Z,8.40
2019-03-15T09:57:40.472Z,8.40
2019-03-15T09:57:52.631Z,8.40
2019-03-15T09:58:04.443Z,8.40
2019-03-15T09:58:16.279Z,8.40
2019-03-15T09:58:28.173Z,8.40
2019-03-15T09:58:40.054Z,8.40
2019-03-15T09:58:51.858Z,8.40
2019-03-15T09:59:03.597Z,8.40
2019-03-15T09:59:15.375Z,8.40
2019-03-15T09:59:27.207Z,8.40
2019-03-15T09:59:39.024Z,8.40
2019-03-15T09:59:50.824Z,8.30
2019-03-15T10:00:02.621Z,8.40
2019-03-15T10:00:14.453Z,8.40
2019-03-15T10:00:26.282Z,8.40
2019-03-15T10:00:38.041Z,8.40
2019-03-15T10:00:49.839Z,8.40
2019-03-15T10:01:01.675Z,8.40
2019-03-15T10:01:13.865Z,8.40
2019-03-15T10:01:34.821Z,8.40
2019-03-15T10:01:37.025Z,8.30
2019-03-15T10:01:48.813Z,8.30
2019-03-15T10:02:00.659Z,8.30
2019-03-15T10:02:12.645Z,8.30
2019-03-15T10:02:30.050Z,8.20
2019-03-15T10:02:36.556Z,8.10
2019-03-15T10:02:48.393Z,8.10
2019-03-15T10:03:00.203Z,8.10
2019-03-15T10:03:21.456Z,8.10
2019-03-15T10:03:23.856Z,8.00
2019-03-15T10:03:35.730Z,8.00
2019-03-15T10:03:47.565Z,8.00
2019-03-15T10:03:59.360Z,8.00
2019-03-15T10:04:11.190Z,8.00
2019-03-15T10:04:23.012Z,7.90
2019-03-15T10:04:36.177Z,8.00
2019-03-15T10:04:46.609Z,8.00
2019-03-15T10:05:10.120Z,8.00
2019-03-15T10:05:11.642Z,8.00
2019-03-15T10:05:21.956Z,8.00
2019-03-15T10:05:33.791Z,8.00
2019-03-15T10:05:45.630Z,8.10
2019-03-15T10:05:57.497Z,8.10
2019-03-15T10:06:14.848Z,8.10
2019-03-15T10:06:21.318Z,8.10
2019-03-15T10:06:33.127Z,8.10
2019-03-15T10:06:44.926Z,8.20
2019-03-15T10:06:56.719Z,8.20
2019-03-15T10:07:08.582Z,8.20
2019-03-15T10:07:20.553Z,8.20
2019-03-15T10:07:38.295Z,8.20
2019-03-15T10:07:44.274Z,8.20
2019-03-15T10:07:56.394Z,8.30
2019-03-15T10:08:08.169Z,8.20
2019-03-15T10:08:23.269Z,8.30
2019-03-15T10:08:31.780Z,8.30
2019-03-15T10:08:43.637Z,8.30
2019-03-15T10:08:55.452Z,8.30
2019-03-15T10:09:07.266Z,8.30
2019-03-15T10:09:19.092Z,8.40
2019-03-15T10:09:44.819Z,8.40
2019-03-15T10:09:46.189Z,8.40
2019-03-15T10:09:54.556Z,8.40
2019-03-15T10:10:13.329Z,8.40
2019-03-15T10:10:19.144Z,8.40
2019-03-15T10:10:29.995Z,8.40
2019-03-15T10:10:41.732Z,8.40
2019-03-15T10:10:53.560Z,8.40
2019-03-15T10:11:05.418Z,8.40
2019-03-15T10:11:17.220Z,8.40
2019-03-15T10:11:29.084Z,8.40
2019-03-15T10:11:41.056Z,8.40
2019-03-15T10:11:56.252Z,8.40
2019-03-15T10:12:04.683Z,8.40
2019-03-15T10:12:16.493Z,8.40
2019-03-15T10:12:28.296Z,8.40
2019-03-15T10:12:40.062Z,8.40
2019-03-15T10:13:04.648Z,8.40
2019-03-15T10:13:06.185Z,8.40
2019-03-15T10:13:15.673Z,8.40
2019-03-15T10:13:27.500Z,8.40
2019-03-15T10:13:39.367Z,8.40
2019-03-15T10:13:51.168Z,8.40
2019-03-15T10:14:02.960Z,8.40
2019-03-15T10:14:14.739Z,8.40
2019-03-15T10:14:26.521Z,8.40
2019-03-15T10:14:38.297Z,8.50
2019-03-15T10:14:50.126Z,8.40
2019-03-15T10:15:01.906Z,8.40
2019-03-15T10:15:13.692Z,8.40
2019-03-15T10:15:26.619Z,8.50
2019-03-15T10:15:37.328Z,8.40
2019-03-15T10:15:49.104Z,8.40
2019-03-15T10:16:01.433Z,8.40
2019-03-15T10:16:13.175Z,8.50
2019-03-15T10:16:24.960Z,8.40
2019-03-15T10:16:36.772Z,8.40
2019-03-15T10:16:48.563Z,8.40
2019-03-15T10:17:00.354Z,8.40
2019-03-15T10:17:12.138Z,8.40
2019-03-15T10:17:23.924Z,8.40
2019-03-15T10:17:35.702Z,8.50
2019-03-15T10:17:49.563Z,8.50
2019-03-15T10:18:12.154Z,8.50
2019-03-15T10:18:22.312Z,8.50